Time;durP1;ratioP1;P1;durP2;ratioP2;P2;SDS_P1;SDS_P2;PMS_P1;PMS_P2;Temp;Humidity;BMP_temperature;BMP_pressure;BME280_temperature;BME280_humidity;BME280_pressure;Samples;Min_cycle;Max_cycle;Signal;HPM_P1;HPM_P2
2022/03/12 12:26:17;;;;;;;15.77;8.18;;;;;;;;;;5136843;27;20387;-85
2022/03/12 12:28:52;;;;;;;12.73;8.00;;;;;;;;;;5120676;28;20385;-85
2022/03/12 12:31:25;;;;;;;25.30;7.85;;;;;;;;;;5120308;28;20059;-84
2022/03/12 12:33:55;;;;;;;124.65;35.03;;;;;;;;;;5119081;28;20059;-84
2022/03/12 12:36:22;;;;;;;172.93;59.25;;;;;;;;;;5114503;28;20063;-83
2022/03/12 12:39:03;;;;;;;198.18;63.85;;;;;;;;;;5115827;28;20401;-84
2022/03/12 12:41:51;;;;;;;318.55;95.85;;;;;;;;;;5132603;28;20089;-83
2022/03/12 12:44:34;;;;;;;77.25;29.23;;;;;;;;;;5114029;28;20517;-84
2022/03/12 12:47:02;;;;;;;16.40;8.70;;;;;;;;;;5131709;28;20124;-85
2022/03/12 12:49:36;;;;;;;39.95;14.13;;;;;;;;;;5112928;28;20052;-84
2022/03/12 12:52:04;;;;;;;65.38;20.05;;;;;;;;;;5112637;28;20054;-86
2022/03/12 12:54:46;;;;;;;55.03;15.43;;;;;;;;;;5112214;28;20055;-86
2022/03/12 12:57:17;;;;;;;13.00;6.55;;;;;;;;;;5119961;28;20090;-86
2022/03/12 12:59:48;;;;;;;13.77;6.57;;;;;;;;;;5128981;28;20442;-85
2022/03/12 13:02:16;;;;;;;12.20;6.63;;;;;;;;;;5128703;28;20055;-85
2022/03/12 13:04:47;;;;;;;83.25;25.00;;;;;;;;;;5130181;28;20504;-85
2022/03/12 13:07:19;;;;;;;53.92;18.65;;;;;;;;;;5114792;28;20071;-85
2022/03/12 13:09:46;;;;;;;33.20;9.93;;;;;;;;;;5112495;28;20055;-85
2022/03/12 13:12:15;;;;;;;20.05;9.10;;;;;;;;;;5112634;28;20057;-85
2022/03/12 13:14:42;;;;;;;79.57;20.63;;;;;;;;;;5129330;28;20106;-84
2022/03/12 13:17:11;;;;;;;12.80;6.30;;;;;;;;;;5111573;28;20120;-85
2022/03/12 13:19:38;;;;;;;257.10;67.47;;;;;;;;;;5111053;28;20082;-85
2022/03/12 13:22:05;;;;;;;108.68;33.33;;;;;;;;;;5129116;28;20428;-85
2022/03/12 13:24:42;;;;;;;19.70;7.18;;;;;;;;;;5129357;28;20051;-84
2022/03/12 13:27:17;;;;;;;13.15;7.13;;;;;;;;;;5111508;28;20112;-84
2022/03/12 13:29:45;;;;;;;12.43;6.60;;;;;;;;;;5127856;28;20516;-84
2022/03/12 13:32:17;;;;;;;15.13;6.57;;;;;;;;;;5109410;28;20082;-84
2022/03/12 13:34:44;;;;;;;11.25;6.80;;;;;;;;;;5109915;28;20468;-83
2022/03/12 13:37:12;;;;;;;10.95;6.57;;;;;;;;;;5116823;28;20751;-84
2022/03/12 13:39:39;;;;;;;11.43;7.13;;;;;;;;;;5115386;28;20047;-91
2022/03/12 13:42:06;;;;;;;15.88;7.20;;;;;;;;;;5106129;28;20078;-91
2022/03/12 13:44:34;;;;;;;9.55;5.70;;;;;;;;;;5122685;28;20133;-91
2022/03/12 13:47:02;;;;;;;14.25;6.45;;;;;;;;;;5122808;28;20063;-92
2022/03/12 13:49:32;;;;;;;17.42;7.00;;;;;;;;;;5104971;28;20051;-91
2022/03/12 13:51:59;;;;;;;14.27;6.63;;;;;;;;;;5104448;28;20065;-91
2022/03/12 13:54:30;;;;;;;12.38;6.47;;;;;;;;;;5104882;28;20044;-92
2022/03/12 13:56:59;;;;;;;11.75;6.55;;;;;;;;;;5131683;28;20046;-93
2022/03/12 13:59:30;;;;;;;14.77;7.10;;;;;;;;;;5114349;28;20457;-93
2022/03/12 14:01:59;;;;;;;12.30;6.57;;;;;;;;;;5112033;27;20078;-91
2022/03/12 14:04:28;;;;;;;18.17;7.30;;;;;;;;;;5122692;28;20075;-91
2022/03/12 14:07:18;;;;;;;14.18;6.50;;;;;;;;;;5125538;28;20047;-91
2022/03/12 14:09:46;;;;;;;15.90;7.22;;;;;;;;;;5113418;28;20111;-92
2022/03/12 14:12:25;;;;;;;10.13;5.93;;;;;;;;;;5103989;28;20063;-92
2022/03/12 14:14:59;;;;;;;14.63;6.15;;;;;;;;;;5103920;28;20150;-92
2022/03/12 14:17:27;;;;;;;16.90;6.50;;;;;;;;;;5115406;28;20052;-92
2022/03/12 14:19:58;;;;;;;13.63;6.63;;;;;;;;;;5105561;28;20407;-92
2022/03/12 14:22:28;;;;;;;17.25;7.18;;;;;;;;;;5123826;28;20048;-93
2022/03/12 14:24:56;;;;;;;15.93;6.53;;;;;;;;;;5105023;28;20472;-93
2022/03/12 14:27:27;;;;;;;15.43;6.07;;;;;;;;;;5106105;28;20055;-93
2022/03/12 14:29:54;;;;;;;15.80;6.47;;;;;;;;;;5116574;28;20031;-92
2022/03/12 14:32:22;;;;;;;16.75;7.30;;;;;;;;;;5111515;28;20372;-91
2022/03/12 14:34:49;;;;;;;17.52;7.05;;;;;;;;;;5139639;28;20072;-91
2022/03/12 14:37:20;;;;;;;11.88;6.40;;;;;;;;;;5121320;28;20036;-90
2022/03/12 14:39:50;;;;;;;15.82;7.55;;;;;;;;;;5123261;28;20032;-90
2022/03/12 14:42:21;;;;;;;11.63;5.97;;;;;;;;;;5123452;28;20091;-91
2022/03/12 14:44:50;;;;;;;12.50;5.88;;;;;;;;;;5117202;28;20048;-93
2022/03/12 14:47:17;;;;;;;14.70;6.45;;;;;;;;;;5128095;28;20051;-93
2022/03/12 14:49:46;;;;;;;12.35;5.75;;;;;;;;;;5107781;28;20070;-92
2022/03/12 14:52:18;;;;;;;16.40;5.78;;;;;;;;;;5107838;28;20071;-93
2022/03/12 14:54:48;;;;;;;12.65;5.85;;;;;;;;;;5106598;28;20504;-92
2022/03/12 14:57:16;;;;;;;14.77;6.57;;;;;;;;;;5103873;28;20050;-90
2022/03/12 14:59:44;;;;;;;17.35;6.30;;;;;;;;;;5105162;28;20126;-92
2022/03/12 15:02:29;;;;;;;14.00;6.15;;;;;;;;;;5105705;28;20055;-91
2022/03/12 15:04:58;;;;;;;12.75;5.60;;;;;;;;;;5104050;28;20047;-92
2022/03/12 15:07:31;;;;;;;18.85;6.70;;;;;;;;;;5106214;28;20059;-91
2022/03/12 15:10:00;;;;;;;13.50;5.57;;;;;;;;;;5103850;28;20108;-91
2022/03/12 15:12:30;;;;;;;14.40;6.70;;;;;;;;;;5105449;28;20044;-91
2022/03/12 15:15:00;;;;;;;11.50;6.15;;;;;;;;;;5105798;28;20051;-91
2022/03/12 15:17:29;;;;;;;13.50;6.18;;;;;;;;;;5105282;28;20050;-92
2022/03/12 15:20:22;;;;;;;15.32;5.70;;;;;;;;;;5105701;28;20051;-91
2022/03/12 15:22:50;;;;;;;11.77;5.82;;;;;;;;;;5103285;28;20059;-91
2022/03/12 15:25:37;;;;;;;13.00;5.80;;;;;;;;;;5094367;28;20089;-91
2022/03/12 15:28:09;;;;;;;11.95;6.22;;;;;;;;;;5136747;28;20057;-93
2022/03/12 15:30:37;;;;;;;14.57;5.90;;;;;;;;;;5121934;28;20046;-93
2022/03/12 15:33:06;;;;;;;13.35;5.82;;;;;;;;;;5139454;28;20062;-92
2022/03/12 15:35:36;;;;;;;15.35;6.38;;;;;;;;;;5107195;28;20054;-92
2022/03/12 15:38:07;;;;;;;13.15;6.40;;;;;;;;;;5108023;28;20043;-93
2022/03/12 15:40:43;;;;;;;11.98;5.53;;;;;;;;;;5107706;28;20056;-92
2022/03/12 15:43:12;;;;;;;16.58;6.03;;;;;;;;;;5104753;28;20076;-92
2022/03/12 15:45:43;;;;;;;11.18;5.80;;;;;;;;;;5121439;28;20055;-91
2022/03/12 15:48:11;;;;;;;10.43;5.97;;;;;;;;;;5111232;28;20058;-91
2022/03/12 15:50:39;;;;;;;14.57;5.93;;;;;;;;;;5110060;28;20067;-91
2022/03/12 15:53:13;;;;;;;10.60;5.72;;;;;;;;;;5125417;28;20059;-92
2022/03/12 15:55:41;;;;;;;13.20;6.10;;;;;;;;;;5109135;28;20074;-92
2022/03/12 15:58:09;;;;;;;12.18;5.78;;;;;;;;;;5105507;28;20048;-92
2022/03/12 16:00:37;;;;;;;20.20;7.22;;;;;;;;;;5102318;28;20043;-93
2022/03/12 16:03:05;;;;;;;13.73;6.10;;;;;;;;;;5101523;28;20122;-92
2022/03/12 16:05:34;;;;;;;15.15;6.13;;;;;;;;;;5103642;28;20050;-92
2022/03/12 16:08:01;;;;;;;15.85;6.53;;;;;;;;;;5105633;28;20058;-90
2022/03/12 16:10:29;;;;;;;12.40;5.80;;;;;;;;;;5103545;28;20445;-90
2022/03/12 16:12:57;;;;;;;12.15;5.82;;;;;;;;;;5117592;28;20049;-91
2022/03/12 16:15:25;;;;;;;12.85;6.50;;;;;;;;;;5119020;28;20055;-91
2022/03/12 16:17:56;;;;;;;16.00;6.22;;;;;;;;;;5125928;28;20043;-91
2022/03/12 16:20:30;;;;;;;12.95;6.30;;;;;;;;;;5106579;28;20069;-93
2022/03/12 16:23:03;;;;;;;13.23;5.95;;;;;;;;;;5101508;28;20139;-90
2022/03/12 16:25:35;;;;;;;10.45;5.78;;;;;;;;;;5102965;28;20067;-91
2022/03/12 16:28:04;;;;;;;13.65;5.97;;;;;;;;;;5116759;28;20433;-92
2022/03/12 16:30:32;;;;;;;13.40;6.43;;;;;;;;;;5104001;28;20123;-92
2022/03/12 16:33:00;;;;;;;14.88;5.90;;;;;;;;;;5111472;28;20082;-90
2022/03/12 16:35:28;;;;;;;14.52;5.35;;;;;;;;;;5138223;27;20047;-92
2022/03/12 16:37:59;;;;;;;11.05;5.47;;;;;;;;;;5138739;27;20093;-91
2022/03/12 16:40:30;;;;;;;19.05;6.80;;;;;;;;;;5119490;27;20114;-92
2022/03/12 16:42:58;;;;;;;16.38;5.60;;;;;;;;;;5101132;28;20043;-92
2022/03/12 16:45:26;;;;;;;15.38;6.05;;;;;;;;;;5101292;28;20073;-92
2022/03/12 16:47:58;;;;;;;13.95;6.43;;;;;;;;;;5133979;28;20078;-92
2022/03/12 16:50:27;;;;;;;16.38;7.60;;;;;;;;;;5119183;28;20052;-90
2022/03/12 16:52:54;;;;;;;15.95;7.85;;;;;;;;;;5117802;28;20112;-91
2022/03/12 16:55:22;;;;;;;23.40;7.45;;;;;;;;;;5119295;28;20570;-92
2022/03/12 16:57:54;;;;;;;18.85;8.82;;;;;;;;;;5101176;28;20105;-93
2022/03/12 17:00:24;;;;;;;18.55;8.30;;;;;;;;;;5102085;28;20047;-92
2022/03/12 17:02:56;;;;;;;35.20;9.10;;;;;;;;;;5092181;28;20476;-92
2022/03/12 17:05:29;;;;;;;19.83;7.80;;;;;;;;;;5118412;28;20052;-91
2022/03/12 17:07:58;;;;;;;19.08;9.43;;;;;;;;;;5132802;28;20047;-89
2022/03/12 17:10:25;;;;;;;18.35;7.95;;;;;;;;;;5116278;28;20149;-91
2022/03/12 17:12:54;;;;;;;29.33;9.85;;;;;;;;;;5121153;28;20058;-91
2022/03/12 17:15:25;;;;;;;23.40;9.43;;;;;;;;;;5104025;28;20077;-91
2022/03/12 17:17:55;;;;;;;23.85;10.77;;;;;;;;;;5121289;28;20040;-91
2022/03/12 17:20:23;;;;;;;24.50;10.88;;;;;;;;;;5102664;28;20507;-90
2022/03/12 17:22:51;;;;;;;25.88;10.70;;;;;;;;;;5120893;28;20658;-90
2022/03/12 17:25:21;;;;;;;21.90;9.60;;;;;;;;;;5102379;28;20073;-91
2022/03/12 17:27:58;;;;;;;31.35;9.82;;;;;;;;;;5103077;28;20112;-91
2022/03/12 17:30:28;;;;;;;24.05;9.00;;;;;;;;;;5103197;28;20043;-91
2022/03/12 17:32:56;;;;;;;22.75;9.35;;;;;;;;;;5103716;28;20044;-90
2022/03/12 17:35:25;;;;;;;24.10;10.68;;;;;;;;;;5102998;28;20126;-91
2022/03/12 17:37:52;;;;;;;22.05;10.73;;;;;;;;;;5102912;28;20096;-91
2022/03/12 17:40:20;;;;;;;27.83;11.05;;;;;;;;;;5102679;28;20063;-90
2022/03/12 17:42:51;;;;;;;21.73;9.77;;;;;;;;;;5104758;28;20408;-88
2022/03/12 17:45:26;;;;;;;26.75;11.75;;;;;;;;;;5109913;28;20050;-90
2022/03/12 17:47:55;;;;;;;33.17;14.90;;;;;;;;;;5107935;28;20044;-92
2022/03/12 17:50:22;;;;;;;47.63;24.92;;;;;;;;;;5107006;28;20048;-91
2022/03/12 17:52:50;;;;;;;29.50;15.10;;;;;;;;;;5106683;28;20043;-91
2022/03/12 17:55:17;;;;;;;26.13;11.50;;;;;;;;;;5106220;28;20044;-91
2022/03/12 17:57:45;;;;;;;26.50;10.70;;;;;;;;;;5134538;28;20058;-90
2022/03/12 18:00:14;;;;;;;25.73;11.80;;;;;;;;;;5122080;28;20048;-91
2022/03/12 18:02:44;;;;;;;29.80;13.90;;;;;;;;;;5122691;28;20052;-89
2022/03/12 18:05:11;;;;;;;26.00;11.05;;;;;;;;;;5110631;28;20069;-91
2022/03/12 18:07:38;;;;;;;26.88;12.68;;;;;;;;;;5125064;28;20058;-92
2022/03/12 18:10:20;;;;;;;27.90;10.75;;;;;;;;;;5106782;28;20070;-92
2022/03/12 18:12:52;;;;;;;23.13;10.70;;;;;;;;;;5105969;28;20048;-91
2022/03/12 18:15:19;;;;;;;27.52;10.45;;;;;;;;;;5105435;28;20044;-90
2022/03/12 18:17:48;;;;;;;26.80;11.00;;;;;;;;;;5105428;28;20047;-91
2022/03/12 18:20:17;;;;;;;26.98;10.60;;;;;;;;;;5105455;28;20054;-91
2022/03/12 18:22:49;;;;;;;25.70;10.88;;;;;;;;;;5105826;28;20044;-92
2022/03/12 18:32:30;;;;;;;34.95;15.18;;;;;;;;;;5021607;28;20057;-91
2022/03/12 18:34:59;;;;;;;29.85;11.30;;;;;;;;;;5005313;28;20061;-91
2022/03/12 18:37:28;;;;;;;39.05;14.80;;;;;;;;;;5096206;28;20079;-92
2022/03/12 18:39:57;;;;;;;29.70;12.80;;;;;;;;;;5126420;28;20059;-91
2022/03/12 18:42:27;;;;;;;26.73;11.15;;;;;;;;;;5107177;28;20051;-90
2022/03/12 18:45:00;;;;;;;27.35;12.00;;;;;;;;;;5123890;28;20043;-91
2022/03/12 18:47:28;;;;;;;26.10;11.75;;;;;;;;;;5105594;28;20073;-90
2022/03/12 18:49:56;;;;;;;25.33;10.68;;;;;;;;;;5107996;28;20092;-91
2022/03/12 18:52:46;;;;;;;31.67;11.63;;;;;;;;;;5096088;28;20043;-91
2022/03/12 18:55:29;;;;;;;30.02;10.35;;;;;;;;;;5125982;28;20051;-91
2022/03/12 18:58:01;;;;;;;26.08;11.00;;;;;;;;;;5106231;28;20055;-90
2022/03/12 19:00:34;;;;;;;36.67;10.45;;;;;;;;;;5104245;28;20067;-90
2022/03/12 19:03:02;;;;;;;21.80;10.15;;;;;;;;;;5104521;28;20059;-89
2022/03/12 19:05:30;;;;;;;22.85;10.75;;;;;;;;;;5104687;28;20047;-90
2022/03/12 19:07:57;;;;;;;49.20;16.80;;;;;;;;;;5106024;28;20047;-90
2022/03/12 19:10:25;;;;;;;31.88;13.05;;;;;;;;;;5123789;28;20055;-91
2022/03/12 19:12:53;;;;;;;29.45;12.13;;;;;;;;;;5122912;28;20044;-90
2022/03/12 19:15:21;;;;;;;27.73;11.77;;;;;;;;;;5104544;28;20142;-91
2022/03/12 19:17:50;;;;;;;30.33;14.20;;;;;;;;;;5104317;28;20048;-90
2022/03/12 19:20:17;;;;;;;29.48;12.60;;;;;;;;;;5105113;28;20376;-91
2022/03/12 19:22:45;;;;;;;31.50;12.18;;;;;;;;;;5103992;28;20051;-91
2022/03/12 19:25:13;;;;;;;29.27;12.55;;;;;;;;;;5104798;28;20055;-90
2022/03/12 19:27:40;;;;;;;29.42;12.23;;;;;;;;;;5104616;28;20040;-90
2022/03/12 19:30:08;;;;;;;29.08;11.80;;;;;;;;;;5104223;28;20097;-91
2022/03/12 19:32:39;;;;;;;30.35;12.45;;;;;;;;;;5104913;28;20434;-89
2022/03/12 19:35:07;;;;;;;31.58;11.70;;;;;;;;;;5103653;28;20048;-89
2022/03/12 19:37:35;;;;;;;31.52;12.02;;;;;;;;;;5104191;28;20058;-89
2022/03/12 19:40:04;;;;;;;27.90;10.82;;;;;;;;;;5103926;28;20066;-88
2022/03/12 19:42:32;;;;;;;24.73;10.85;;;;;;;;;;5104064;28;20051;-90
2022/03/12 19:44:59;;;;;;;26.70;11.15;;;;;;;;;;5104320;28;20084;-89
2022/03/12 19:47:28;;;;;;;25.13;10.60;;;;;;;;;;5103327;28;20044;-89
2022/03/12 19:49:55;;;;;;;29.55;10.90;;;;;;;;;;5104077;28;20130;-91
2022/03/12 19:52:22;;;;;;;21.65;10.25;;;;;;;;;;5103969;28;20040;-90
2022/03/12 19:54:50;;;;;;;27.23;11.25;;;;;;;;;;5104272;28;20496;-89
2022/03/12 19:57:17;;;;;;;29.33;11.88;;;;;;;;;;5103345;28;20060;-91
2022/03/12 19:59:48;;;;;;;30.98;12.10;;;;;;;;;;5121683;28;20059;-90
2022/03/12 20:02:15;;;;;;;35.38;15.18;;;;;;;;;;5105109;28;20069;-90
2022/03/12 20:04:42;;;;;;;39.15;14.35;;;;;;;;;;5105174;28;20051;-90
2022/03/12 20:07:16;;;;;;;40.15;14.52;;;;;;;;;;5104658;28;20051;-90
2022/03/12 20:09:44;;;;;;;35.05;13.48;;;;;;;;;;5105784;28;20147;-91
2022/03/12 20:12:15;;;;;;;29.50;11.88;;;;;;;;;;5105537;28;20050;-89
2022/03/12 20:14:45;;;;;;;28.38;12.23;;;;;;;;;;5105608;28;20048;-91
2022/03/12 20:17:13;;;;;;;31.50;14.55;;;;;;;;;;5107310;28;20586;-90
2022/03/12 20:19:41;;;;;;;36.20;15.45;;;;;;;;;;5105554;28;20055;-90
2022/03/12 20:22:08;;;;;;;31.92;13.40;;;;;;;;;;5105500;28;20048;-90
2022/03/12 20:24:36;;;;;;;32.50;12.50;;;;;;;;;;5105615;28;20048;-90
2022/03/12 20:27:06;;;;;;;30.65;12.20;;;;;;;;;;5105176;28;20047;-89
2022/03/12 20:29:33;;;;;;;30.83;11.98;;;;;;;;;;5104864;28;20047;-90
2022/03/12 20:32:01;;;;;;;29.52;11.90;;;;;;;;;;5105386;28;20051;-89
2022/03/12 20:34:30;;;;;;;31.33;12.55;;;;;;;;;;5105456;28;20059;-91
2022/03/12 20:36:58;;;;;;;35.67;10.88;;;;;;;;;;5104815;28;20399;-90
2022/03/12 20:39:26;;;;;;;31.65;11.93;;;;;;;;;;5104748;28;20052;-90
2022/03/12 20:41:53;;;;;;;34.38;11.38;;;;;;;;;;5105170;28;20541;-90
2022/03/12 20:44:22;;;;;;;23.15;10.57;;;;;;;;;;5104598;28;20051;-90
2022/03/12 20:46:56;;;;;;;26.67;11.82;;;;;;;;;;5123306;28;20063;-89
2022/03/12 20:49:23;;;;;;;29.38;11.45;;;;;;;;;;5107562;28;20066;-89
2022/03/12 20:51:50;;;;;;;34.30;11.40;;;;;;;;;;5107604;28;20051;-89
2022/03/12 20:54:18;;;;;;;34.38;11.77;;;;;;;;;;5107993;28;20075;-89
2022/03/12 20:56:45;;;;;;;40.63;14.00;;;;;;;;;;5107311;28;20498;-90
2022/03/12 20:59:13;;;;;;;33.42;13.68;;;;;;;;;;5106692;28;20051;-89
2022/03/12 21:01:48;;;;;;;34.03;12.95;;;;;;;;;;5106482;28;20135;-89
2022/03/12 21:04:19;;;;;;;33.13;13.95;;;;;;;;;;5127302;28;20107;-90
2022/03/12 21:07:06;;;;;;;37.53;12.68;;;;;;;;;;5095772;28;20047;-90
2022/03/12 21:09:40;;;;;;;32.38;12.95;;;;;;;;;;5108778;28;20071;-89
2022/03/12 21:12:11;;;;;;;35.42;13.10;;;;;;;;;;5126032;28;20050;-90
2022/03/12 21:14:38;;;;;;;42.05;12.90;;;;;;;;;;5106704;28;20047;-90
2022/03/12 21:17:09;;;;;;;53.50;16.70;;;;;;;;;;5106604;28;20092;-90
2022/03/12 21:19:36;;;;;;;56.30;20.45;;;;;;;;;;5106923;28;20058;-89
2022/03/12 21:22:04;;;;;;;58.70;21.73;;;;;;;;;;5106593;28;20381;-90
2022/03/12 21:24:31;;;;;;;78.47;30.20;;;;;;;;;;5106185;28;20445;-89
2022/03/12 21:26:58;;;;;;;78.40;28.08;;;;;;;;;;5105969;28;20047;-89
2022/03/12 21:29:29;;;;;;;63.05;23.63;;;;;;;;;;5106255;28;20043;-88
2022/03/12 21:31:57;;;;;;;57.63;21.30;;;;;;;;;;5105954;28;20043;-89
2022/03/12 21:34:24;;;;;;;62.63;26.20;;;;;;;;;;5106536;28;20082;-88
2022/03/12 21:36:51;;;;;;;53.00;18.23;;;;;;;;;;5108027;28;20062;-89
2022/03/12 21:39:34;;;;;;;35.17;14.18;;;;;;;;;;5123505;28;20061;-90
2022/03/12 21:42:01;;;;;;;34.78;14.05;;;;;;;;;;5106796;28;20051;-89
2022/03/12 21:44:29;;;;;;;38.60;13.60;;;;;;;;;;5105547;28;20055;-89
2022/03/12 21:46:56;;;;;;;38.63;14.75;;;;;;;;;;5105831;28;20047;-89
2022/03/12 21:49:24;;;;;;;34.42;13.85;;;;;;;;;;5106394;28;20113;-90
2022/03/12 21:51:53;;;;;;;36.10;13.77;;;;;;;;;;5105694;28;20055;-90
2022/03/12 21:54:21;;;;;;;31.13;12.32;;;;;;;;;;5106458;28;20044;-90
2022/03/12 21:56:48;;;;;;;33.55;12.98;;;;;;;;;;5105809;28;20051;-90
2022/03/12 21:59:16;;;;;;;33.42;14.05;;;;;;;;;;5106567;28;20055;-90
2022/03/12 22:01:43;;;;;;;36.42;14.10;;;;;;;;;;5108907;28;20052;-91
2022/03/12 22:04:16;;;;;;;31.48;12.73;;;;;;;;;;5106225;28;20051;-91
2022/03/12 22:06:44;;;;;;;38.75;13.88;;;;;;;;;;5106725;28;20503;-90
2022/03/12 22:09:12;;;;;;;36.38;12.65;;;;;;;;;;5106948;28;20040;-89
2022/03/12 22:11:39;;;;;;;40.85;14.90;;;;;;;;;;5107009;28;20052;-89
2022/03/12 22:14:12;;;;;;;40.22;14.93;;;;;;;;;;5109437;28;20056;-89
2022/03/12 22:16:40;;;;;;;43.03;14.95;;;;;;;;;;5109670;28;20082;-91
2022/03/12 22:19:10;;;;;;;73.72;23.60;;;;;;;;;;5106691;28;20466;-88
2022/03/12 22:21:41;;;;;;;89.30;28.98;;;;;;;;;;5109051;28;20050;-91
2022/03/12 22:24:19;;;;;;;66.80;23.05;;;;;;;;;;5126081;28;20066;-90
2022/03/12 22:26:48;;;;;;;50.67;18.05;;;;;;;;;;5123615;28;20047;-90
2022/03/12 22:29:19;;;;;;;32.13;14.02;;;;;;;;;;5122963;28;20078;-90
2022/03/12 22:31:50;;;;;;;37.08;14.20;;;;;;;;;;5125338;28;20043;-90
2022/03/12 22:34:17;;;;;;;31.55;13.45;;;;;;;;;;5129662;28;20074;-90
2022/03/12 22:36:44;;;;;;;36.25;14.73;;;;;;;;;;5128188;28;20077;-90
2022/03/12 22:39:14;;;;;;;29.60;13.23;;;;;;;;;;5127920;28;20055;-92
2022/03/12 22:41:44;;;;;;;34.53;14.25;;;;;;;;;;5131489;28;20051;-90
2022/03/12 22:44:13;;;;;;;41.45;13.80;;;;;;;;;;5126695;28;20047;-90
2022/03/12 22:46:42;;;;;;;34.17;13.43;;;;;;;;;;5126564;28;20073;-91
2022/03/12 22:49:12;;;;;;;39.17;12.93;;;;;;;;;;5123687;28;20048;-92
2022/03/12 22:51:42;;;;;;;41.10;13.85;;;;;;;;;;5124233;28;20051;-91
2022/03/12 22:54:09;;;;;;;33.25;12.90;;;;;;;;;;5123024;28;20051;-90
2022/03/12 22:56:36;;;;;;;35.20;14.15;;;;;;;;;;5122089;28;20476;-90
2022/03/12 22:59:04;;;;;;;32.90;12.35;;;;;;;;;;5124162;28;20052;-91
2022/03/12 23:01:34;;;;;;;36.60;13.48;;;;;;;;;;5127179;28;20507;-91
2022/03/12 23:09:36;;;;;;;33.33;13.63;;;;;;;;;;5127532;28;20048;-91
2022/03/12 23:12:06;;;;;;;31.52;13.85;;;;;;;;;;5127690;28;20059;-91
2022/03/12 23:14:55;;;;;;;34.17;12.63;;;;;;;;;;5128015;28;20040;-92
2022/03/12 23:17:37;;;;;;;35.88;13.05;;;;;;;;;;5109016;28;20522;-91
2022/03/12 23:20:15;;;;;;;30.13;13.45;;;;;;;;;;5109632;28;20051;-92
2022/03/12 23:22:59;;;;;;;34.03;13.02;;;;;;;;;;5119380;28;20054;-92
2022/03/12 23:25:31;;;;;;;34.53;13.07;;;;;;;;;;5120132;28;20075;-92
2022/03/12 23:27:58;;;;;;;31.85;13.68;;;;;;;;;;5105383;28;20047;-92
2022/03/12 23:30:25;;;;;;;35.17;13.70;;;;;;;;;;5100775;28;20840;-90
2022/03/12 23:32:54;;;;;;;35.15;14.70;;;;;;;;;;5109453;28;20046;-91
2022/03/12 23:35:22;;;;;;;32.03;13.02;;;;;;;;;;5118953;28;20665;-91
2022/03/12 23:37:50;;;;;;;37.70;12.43;;;;;;;;;;5110351;28;20040;-91
2022/03/12 23:40:24;;;;;;;29.70;12.30;;;;;;;;;;5102084;28;20051;-89
2022/03/12 23:42:53;;;;;;;28.65;12.00;;;;;;;;;;5118312;28;20071;-91
2022/03/12 23:45:23;;;;;;;39.45;12.85;;;;;;;;;;5106624;28;20226;-90
2022/03/12 23:47:52;;;;;;;30.65;12.48;;;;;;;;;;5101321;28;20797;-91
2022/03/12 23:50:27;;;;;;;39.13;14.65;;;;;;;;;;5100803;28;20051;-92
2022/03/12 23:52:55;;;;;;;31.85;13.63;;;;;;;;;;5100898;28;20470;-91
2022/03/12 23:55:27;;;;;;;40.35;14.27;;;;;;;;;;5116673;28;20047;-90
2022/03/12 23:57:56;;;;;;;39.58;14.40;;;;;;;;;;5100843;28;20071;-90
